sensor_id;sensor_type;location;lat;lon;timestamp;temperature;humidity
29031;DHT22;16122;50.236;11.734;2022-09-27T00:01:09;16.80;66.90
29031;DHT22;16122;50.236;11.734;2022-09-27T00:03:35;16.80;66.90
29031;DHT22;16122;50.236;11.734;2022-09-27T00:08:32;16.90;67.00
29031;DHT22;16122;50.236;11.734;2022-09-27T00:11:03;16.80;66.90
29031;DHT22;16122;50.236;11.734;2022-09-27T00:13:30;16.80;66.90
29031;DHT22;16122;50.236;11.734;2022-09-27T00:16:00;16.80;66.90
29031;DHT22;16122;50.236;11.734;2022-09-27T00:18:27;16.80;66.90
29031;DHT22;16122;50.236;11.734;2022-09-27T00:20:53;16.80;66.90
29031;DHT22;16122;50.236;11.734;2022-09-27T00:23:19;16.80;66.90
29031;DHT22;16122;50.236;11.734;2022-09-27T00:25:55;16.80;67.00
29031;DHT22;16122;50.236;11.734;2022-09-27T00:28:22;16.80;67.00
29031;DHT22;16122;50.236;11.734;2022-09-27T00:30:48;16.70;66.80
29031;DHT22;16122;50.236;11.734;2022-09-27T00:33:14;16.70;66.80
29031;DHT22;16122;50.236;11.734;2022-09-27T00:35:40;16.60;66.70
29031;DHT22;16122;50.236;11.734;2022-09-27T00:38:06;16.70;66.80
29031;DHT22;16122;50.236;11.734;2022-09-27T00:40:32;16.70;66.80
29031;DHT22;16122;50.236;11.734;2022-09-27T00:42:58;17.10;67.20
29031;DHT22;16122;50.236;11.734;2022-09-27T00:45:24;16.70;66.70
29031;DHT22;16122;50.236;11.734;2022-09-27T00:48:00;16.70;66.80
29031;DHT22;16122;50.236;11.734;2022-09-27T00:50:41;16.70;66.80
29031;DHT22;16122;50.236;11.734;2022-09-27T00:53:14;16.80;66.90
29031;DHT22;16122;50.236;11.734;2022-09-27T00:55:45;16.70;66.70
29031;DHT22;16122;50.236;11.734;2022-09-27T00:58:17;16.70;66.70
29031;DHT22;16122;50.236;11.734;2022-09-27T01:00:49;16.70;66.70
29031;DHT22;16122;50.236;11.734;2022-09-27T01:03:33;16.70;66.70
29031;DHT22;16122;50.236;11.734;2022-09-27T01:06:01;16.70;66.70
29031;DHT22;16122;50.236;11.734;2022-09-27T01:08:27;16.70;66.80
29031;DHT22;16122;50.236;11.734;2022-09-27T01:11:31;16.70;66.80
29031;DHT22;16122;50.236;11.734;2022-09-27T01:14:03;16.70;66.80
29031;DHT22;16122;50.236;11.734;2022-09-27T01:22:03;16.70;66.90
29031;DHT22;16122;50.236;11.734;2022-09-27T01:32:37;16.70;66.70
29031;DHT22;16122;50.236;11.734;2022-09-27T01:41:27;16.60;66.50
29031;DHT22;16122;50.236;11.734;2022-09-27T01:46:37;16.60;66.60
29031;DHT22;16122;50.236;11.734;2022-09-27T01:49:23;16.60;66.60
29031;DHT22;16122;50.236;11.734;2022-09-27T01:51:58;16.60;66.50
29031;DHT22;16122;50.236;11.734;2022-09-27T01:54:33;16.60;66.60
29031;DHT22;16122;50.236;11.734;2022-09-27T01:57:22;16.60;66.60
29031;DHT22;16122;50.236;11.734;2022-09-27T01:59:54;16.60;66.60
29031;DHT22;16122;50.236;11.734;2022-09-27T02:02:45;16.60;66.60
29031;DHT22;16122;50.236;11.734;2022-09-27T02:05:37;16.60;66.60
29031;DHT22;16122;50.236;11.734;2022-09-27T02:11:15;16.60;66.50
29031;DHT22;16122;50.236;11.734;2022-09-27T02:14:01;16.60;66.60
29031;DHT22;16122;50.236;11.734;2022-09-27T02:16:52;16.60;66.70
29031;DHT22;16122;50.236;11.734;2022-09-27T02:28:03;16.60;66.40
29031;DHT22;16122;50.236;11.734;2022-09-27T02:30:34;16.60;66.40
29031;DHT22;16122;50.236;11.734;2022-09-27T02:33:14;16.60;66.40
29031;DHT22;16122;50.236;11.734;2022-09-27T02:35:40;16.60;66.40
29031;DHT22;16122;50.236;11.734;2022-09-27T02:38:07;16.70;66.60
29031;DHT22;16122;50.236;11.734;2022-09-27T02:40:35;16.50;66.30
29031;DHT22;16122;50.236;11.734;2022-09-27T02:43:07;16.50;66.40
29031;DHT22;16122;50.236;11.734;2022-09-27T02:48:30;16.50;66.30
29031;DHT22;16122;50.236;11.734;2022-09-27T02:57:06;16.40;66.20
29031;DHT22;16122;50.236;11.734;2022-09-27T03:00:15;16.50;66.30
29031;DHT22;16122;50.236;11.734;2022-09-27T03:06:05;16.50;66.40
29031;DHT22;16122;50.236;11.734;2022-09-27T03:08:32;16.50;66.40
29031;DHT22;16122;50.236;11.734;2022-09-27T03:10:58;16.50;66.40
29031;DHT22;16122;50.236;11.734;2022-09-27T03:13:24;16.50;66.40
29031;DHT22;16122;50.236;11.734;2022-09-27T03:15:51;16.50;66.40
29031;DHT22;16122;50.236;11.734;2022-09-27T03:18:17;16.50;66.30
29031;DHT22;16122;50.236;11.734;2022-09-27T03:21:12;16.50;66.50
29031;DHT22;16122;50.236;11.734;2022-09-27T03:23:39;16.50;66.40
29031;DHT22;16122;50.236;11.734;2022-09-27T03:26:05;16.50;66.40
29031;DHT22;16122;50.236;11.734;2022-09-27T03:28:31;16.50;66.30
29031;DHT22;16122;50.236;11.734;2022-09-27T03:30:57;16.50;66.20
29031;DHT22;16122;50.236;11.734;2022-09-27T03:33:41;16.50;66.30
29031;DHT22;16122;50.236;11.734;2022-09-27T03:36:10;16.50;66.20
29031;DHT22;16122;50.236;11.734;2022-09-27T03:38:37;16.50;66.10
29031;DHT22;16122;50.236;11.734;2022-09-27T03:41:04;16.40;66.00
29031;DHT22;16122;50.236;11.734;2022-09-27T03:43:30;16.50;66.10
29031;DHT22;16122;50.236;11.734;2022-09-27T03:46:00;16.50;66.20
29031;DHT22;16122;50.236;11.734;2022-09-27T03:48:26;16.40;66.00
29031;DHT22;16122;50.236;11.734;2022-09-27T03:50:52;16.50;66.20
29031;DHT22;16122;50.236;11.734;2022-09-27T03:53:18;16.40;66.10
29031;DHT22;16122;50.236;11.734;2022-09-27T03:55:45;16.40;66.70
29031;DHT22;16122;50.236;11.734;2022-09-27T03:58:11;16.40;67.10
29031;DHT22;16122;50.236;11.734;2022-09-27T04:00:37;16.50;67.40
29031;DHT22;16122;50.236;11.734;2022-09-27T04:03:03;16.50;68.00
29031;DHT22;16122;50.236;11.734;2022-09-27T04:05:38;16.40;68.10
29031;DHT22;16122;50.236;11.734;2022-09-27T04:08:13;16.40;68.20
29031;DHT22;16122;50.236;11.734;2022-09-27T04:10:41;16.50;68.10
29031;DHT22;16122;50.236;11.734;2022-09-27T04:13:07;16.50;68.30
29031;DHT22;16122;50.236;11.734;2022-09-27T04:15:39;16.50;68.40
29031;DHT22;16122;50.236;11.734;2022-09-27T04:18:24;16.50;68.50
29031;DHT22;16122;50.236;11.734;2022-09-27T04:20:53;16.50;68.80
29031;DHT22;16122;50.236;11.734;2022-09-27T04:23:19;16.40;68.90
29031;DHT22;16122;50.236;11.734;2022-09-27T04:25:50;16.50;69.10
29031;DHT22;16122;50.236;11.734;2022-09-27T04:28:34;16.50;69.00
29031;DHT22;16122;50.236;11.734;2022-09-27T04:31:00;16.50;69.20
29031;DHT22;16122;50.236;11.734;2022-09-27T04:33:29;16.50;69.20
29031;DHT22;16122;50.236;11.734;2022-09-27T04:35:55;16.50;69.20
29031;DHT22;16122;50.236;11.734;2022-09-27T04:38:57;16.50;69.20
29031;DHT22;16122;50.236;11.734;2022-09-27T04:41:24;16.50;69.20
29031;DHT22;16122;50.236;11.734;2022-09-27T04:43:51;16.60;68.70
29031;DHT22;16122;50.236;11.734;2022-09-27T04:46:17;16.50;68.40
29031;DHT22;16122;50.236;11.734;2022-09-27T04:48:45;16.50;68.30
29031;DHT22;16122;50.236;11.734;2022-09-27T04:51:11;16.50;68.20
29031;DHT22;16122;50.236;11.734;2022-09-27T04:53:37;16.50;68.10
29031;DHT22;16122;50.236;11.734;2022-09-27T04:56:03;16.40;67.90
29031;DHT22;16122;50.236;11.734;2022-09-27T04:58:30;16.50;67.90
29031;DHT22;16122;50.236;11.734;2022-09-27T05:00:58;16.40;67.70
29031;DHT22;16122;50.236;11.734;2022-09-27T05:03:47;16.40;67.70
29031;DHT22;16122;50.236;11.734;2022-09-27T05:06:15;16.40;67.60
29031;DHT22;16122;50.236;11.734;2022-09-27T05:08:41;16.40;67.50
29031;DHT22;16122;50.236;11.734;2022-09-27T05:11:13;16.40;67.50
29031;DHT22;16122;50.236;11.734;2022-09-27T05:13:42;16.40;67.50
29031;DHT22;16122;50.236;11.734;2022-09-27T05:16:08;16.40;67.50
29031;DHT22;16122;50.236;11.734;2022-09-27T05:19:06;16.40;67.30
29031;DHT22;16122;50.236;11.734;2022-09-27T05:21:55;16.40;67.40
29031;DHT22;16122;50.236;11.734;2022-09-27T05:24:21;16.40;67.30
29031;DHT22;16122;50.236;11.734;2022-09-27T05:26:47;16.40;67.30
29031;DHT22;16122;50.236;11.734;2022-09-27T05:29:13;16.40;67.30
29031;DHT22;16122;50.236;11.734;2022-09-27T05:31:44;16.40;67.10
29031;DHT22;16122;50.236;11.734;2022-09-27T05:34:10;16.40;67.10
29031;DHT22;16122;50.236;11.734;2022-09-27T05:36:42;16.40;67.00
29031;DHT22;16122;50.236;11.734;2022-09-27T05:39:08;16.40;67.00
29031;DHT22;16122;50.236;11.734;2022-09-27T05:41:34;16.30;66.90
29031;DHT22;16122;50.236;11.734;2022-09-27T05:44:00;16.30;66.90
29031;DHT22;16122;50.236;11.734;2022-09-27T05:46:27;16.30;66.80
29031;DHT22;16122;50.236;11.734;2022-09-27T05:48:52;16.30;66.80
29031;DHT22;16122;50.236;11.734;2022-09-27T05:51:18;16.30;66.80
29031;DHT22;16122;50.236;11.734;2022-09-27T05:53:46;16.30;66.70
29031;DHT22;16122;50.236;11.734;2022-09-27T05:56:23;16.30;66.70
29031;DHT22;16122;50.236;11.734;2022-09-27T05:59:24;16.30;66.70
29031;DHT22;16122;50.236;11.734;2022-09-27T06:02:11;16.30;66.70
29031;DHT22;16122;50.236;11.734;2022-09-27T06:05:03;16.30;66.70
29031;DHT22;16122;50.236;11.734;2022-09-27T06:07:48;16.30;66.60
29031;DHT22;16122;50.236;11.734;2022-09-27T06:10:20;16.30;66.80
29031;DHT22;16122;50.236;11.734;2022-09-27T06:12:46;16.30;66.70
29031;DHT22;16122;50.236;11.734;2022-09-27T06:15:40;16.30;66.80
29031;DHT22;16122;50.236;11.734;2022-09-27T06:18:14;16.30;66.90
29031;DHT22;16122;50.236;11.734;2022-09-27T06:20:46;16.30;66.80
29031;DHT22;16122;50.236;11.734;2022-09-27T06:23:16;16.30;66.60
29031;DHT22;16122;50.236;11.734;2022-09-27T06:25:44;16.30;66.70
29031;DHT22;16122;50.236;11.734;2022-09-27T06:28:37;16.30;66.70
29031;DHT22;16122;50.236;11.734;2022-09-27T06:31:05;16.20;66.50
29031;DHT22;16122;50.236;11.734;2022-09-27T06:33:59;16.30;66.90
29031;DHT22;16122;50.236;11.734;2022-09-27T06:36:25;16.30;66.90
29031;DHT22;16122;50.236;11.734;2022-09-27T06:38:51;16.30;66.80
29031;DHT22;16122;50.236;11.734;2022-09-27T06:41:25;16.30;66.90
29031;DHT22;16122;50.236;11.734;2022-09-27T06:44:15;16.30;66.90
29031;DHT22;16122;50.236;11.734;2022-09-27T06:46:46;16.30;67.00
29031;DHT22;16122;50.236;11.734;2022-09-27T06:49:42;16.30;66.90
29031;DHT22;16122;50.236;11.734;2022-09-27T06:52:08;16.30;66.90
29031;DHT22;16122;50.236;11.734;2022-09-27T06:54:34;16.30;66.80
29031;DHT22;16122;50.236;11.734;2022-09-27T06:56:59;16.30;66.90
29031;DHT22;16122;50.236;11.734;2022-09-27T06:59:25;16.30;66.90
29031;DHT22;16122;50.236;11.734;2022-09-27T07:02:45;16.30;66.90
29031;DHT22;16122;50.236;11.734;2022-09-27T07:05:37;16.30;67.00
29031;DHT22;16122;50.236;11.734;2022-09-27T07:08:13;16.30;67.00
29031;DHT22;16122;50.236;11.734;2022-09-27T07:10:40;16.20;66.80
29031;DHT22;16122;50.236;11.734;2022-09-27T07:13:07;16.30;67.00
29031;DHT22;16122;50.236;11.734;2022-09-27T07:15:34;16.30;66.80
29031;DHT22;16122;50.236;11.734;2022-09-27T07:18:07;16.30;66.90
29031;DHT22;16122;50.236;11.734;2022-09-27T07:20:34;16.20;66.70
29031;DHT22;16122;50.236;11.734;2022-09-27T07:23:04;16.30;66.80
29031;DHT22;16122;50.236;11.734;2022-09-27T07:25:32;16.30;66.70
29031;DHT22;16122;50.236;11.734;2022-09-27T07:28:04;16.30;66.70
29031;DHT22;16122;50.236;11.734;2022-09-27T07:30:31;16.30;66.70
29031;DHT22;16122;50.236;11.734;2022-09-27T07:33:02;16.30;66.70
29031;DHT22;16122;50.236;11.734;2022-09-27T07:35:28;16.20;66.50
29031;DHT22;16122;50.236;11.734;2022-09-27T07:37:55;16.30;66.60
29031;DHT22;16122;50.236;11.734;2022-09-27T07:40:22;16.20;66.50
29031;DHT22;16122;50.236;11.734;2022-09-27T07:42:54;16.20;66.50
29031;DHT22;16122;50.236;11.734;2022-09-27T07:45:20;16.20;66.50
29031;DHT22;16122;50.236;11.734;2022-09-27T07:48:11;16.20;66.40
29031;DHT22;16122;50.236;11.734;2022-09-27T07:50:58;16.20;66.40
29031;DHT22;16122;50.236;11.734;2022-09-27T07:53:43;16.20;66.40
29031;DHT22;16122;50.236;11.734;2022-09-27T07:56:27;16.20;66.40
29031;DHT22;16122;50.236;11.734;2022-09-27T07:58:54;16.20;66.40
29031;DHT22;16122;50.236;11.734;2022-09-27T08:01:21;16.20;66.40
29031;DHT22;16122;50.236;11.734;2022-09-27T08:03:47;16.20;66.30
29031;DHT22;16122;50.236;11.734;2022-09-27T08:06:14;16.20;66.40
29031;DHT22;16122;50.236;11.734;2022-09-27T08:08:41;16.20;66.30
29031;DHT22;16122;50.236;11.734;2022-09-27T08:11:12;16.20;66.30
29031;DHT22;16122;50.236;11.734;2022-09-27T08:13:43;16.20;66.30
29031;DHT22;16122;50.236;11.734;2022-09-27T08:16:10;16.20;66.60
29031;DHT22;16122;50.236;11.734;2022-09-27T08:19:06;16.20;66.30
29031;DHT22;16122;50.236;11.734;2022-09-27T08:21:52;16.20;66.30
29031;DHT22;16122;50.236;11.734;2022-09-27T08:24:23;16.20;66.30
29031;DHT22;16122;50.236;11.734;2022-09-27T08:27:17;16.20;66.30
29031;DHT22;16122;50.236;11.734;2022-09-27T08:29:47;16.20;66.20
29031;DHT22;16122;50.236;11.734;2022-09-27T08:32:15;16.20;66.20
29031;DHT22;16122;50.236;11.734;2022-09-27T08:34:42;16.20;66.20
29031;DHT22;16122;50.236;11.734;2022-09-27T08:37:08;16.20;66.20
29031;DHT22;16122;50.236;11.734;2022-09-27T08:39:35;16.20;66.10
29031;DHT22;16122;50.236;11.734;2022-09-27T08:45:17;16.20;66.00
29031;DHT22;16122;50.236;11.734;2022-09-27T08:47:55;16.20;66.10
29031;DHT22;16122;50.236;11.734;2022-09-27T08:50:31;16.20;66.00
29031;DHT22;16122;50.236;11.734;2022-09-27T08:55:56;16.20;66.00
29031;DHT22;16122;50.236;11.734;2022-09-27T08:58:31;15.80;65.60
29031;DHT22;16122;50.236;11.734;2022-09-27T09:01:03;16.20;65.90
29031;DHT22;16122;50.236;11.734;2022-09-27T09:03:37;16.20;65.90
29031;DHT22;16122;50.236;11.734;2022-09-27T09:15:19;16.20;65.80
29031;DHT22;16122;50.236;11.734;2022-09-27T09:21:04;16.20;65.70
29031;DHT22;16122;50.236;11.734;2022-09-27T09:23:41;16.20;65.60
29031;DHT22;16122;50.236;11.734;2022-09-27T09:26:41;16.20;65.60
29031;DHT22;16122;50.236;11.734;2022-09-27T09:32:01;16.20;65.60
29031;DHT22;16122;50.236;11.734;2022-09-27T09:34:42;16.20;65.60
29031;DHT22;16122;50.236;11.734;2022-09-27T09:39:51;16.30;65.60
29031;DHT22;16122;50.236;11.734;2022-09-27T09:42:45;16.20;65.60
29031;DHT22;16122;50.236;11.734;2022-09-27T09:45:28;16.20;65.60
29031;DHT22;16122;50.236;11.734;2022-09-27T09:50:30;16.20;65.90
29031;DHT22;16122;50.236;11.734;2022-09-27T09:53:16;16.20;66.40
29031;DHT22;16122;50.236;11.734;2022-09-27T09:56:37;16.20;66.90
29031;DHT22;16122;50.236;11.734;2022-09-27T10:01:33;16.20;69.50
29031;DHT22;16122;50.236;11.734;2022-09-27T10:04:01;16.30;69.50
29031;DHT22;16122;50.236;11.734;2022-09-27T10:06:28;16.30;70.10
29031;DHT22;16122;50.236;11.734;2022-09-27T10:08:55;16.30;70.50
29031;DHT22;16122;50.236;11.734;2022-09-27T10:11:51;16.10;70.50
29031;DHT22;16122;50.236;11.734;2022-09-27T10:14:26;16.30;70.80
29031;DHT22;16122;50.236;11.734;2022-09-27T10:17:02;16.30;70.80
29031;DHT22;16122;50.236;11.734;2022-09-27T10:19:31;16.30;70.90
29031;DHT22;16122;50.236;11.734;2022-09-27T10:22:17;16.30;71.00
29031;DHT22;16122;50.236;11.734;2022-09-27T10:25:02;16.30;71.00
29031;DHT22;16122;50.236;11.734;2022-09-27T10:30:32;16.30;70.80
29031;DHT22;16122;50.236;11.734;2022-09-27T10:33:06;16.30;70.70
29031;DHT22;16122;50.236;11.734;2022-09-27T10:35:46;16.30;70.50
29031;DHT22;16122;50.236;11.734;2022-09-27T10:38:32;16.30;70.40
29031;DHT22;16122;50.236;11.734;2022-09-27T10:41:32;16.30;70.40
29031;DHT22;16122;50.236;11.734;2022-09-27T10:46:43;16.30;70.00
29031;DHT22;16122;50.236;11.734;2022-09-27T10:49:31;16.30;70.00
29031;DHT22;16122;50.236;11.734;2022-09-27T10:52:41;16.30;69.80
29031;DHT22;16122;50.236;11.734;2022-09-27T10:55:22;16.30;69.60
29031;DHT22;16122;50.236;11.734;2022-09-27T10:57:53;16.30;69.50
29031;DHT22;16122;50.236;11.734;2022-09-27T11:00:31;16.30;69.50
29031;DHT22;16122;50.236;11.734;2022-09-27T11:03:14;16.30;69.40
29031;DHT22;16122;50.236;11.734;2022-09-27T11:05:41;16.30;69.30
29031;DHT22;16122;50.236;11.734;2022-09-27T11:13:36;16.30;69.00
29031;DHT22;16122;50.236;11.734;2022-09-27T11:16:24;16.30;69.00
29031;DHT22;16122;50.236;11.734;2022-09-27T11:28:06;16.30;68.60
29031;DHT22;16122;50.236;11.734;2022-09-27T11:30:10;16.30;68.60
29031;DHT22;16122;50.236;11.734;2022-09-27T11:33:37;16.30;69.40
29031;DHT22;16122;50.236;11.734;2022-09-27T11:38:55;16.30;68.50
29031;DHT22;16122;50.236;11.734;2022-09-27T11:46:37;16.30;68.10
29031;DHT22;16122;50.236;11.734;2022-09-27T11:57:38;16.30;68.00
29031;DHT22;16122;50.236;11.734;2022-09-27T12:00:20;16.30;68.00
29031;DHT22;16122;50.236;11.734;2022-09-27T12:11:42;16.30;67.90
29031;DHT22;16122;50.236;11.734;2022-09-27T12:14:32;16.30;67.90
29031;DHT22;16122;50.236;11.734;2022-09-27T12:17:02;16.30;67.90
29031;DHT22;16122;50.236;11.734;2022-09-27T12:19:34;16.30;67.80
29031;DHT22;16122;50.236;11.734;2022-09-27T12:22:08;16.30;67.80
29031;DHT22;16122;50.236;11.734;2022-09-27T12:24:40;16.30;67.90
29031;DHT22;16122;50.236;11.734;2022-09-27T12:27:42;16.30;67.80
29031;DHT22;16122;50.236;11.734;2022-09-27T12:30:15;16.30;67.80
29031;DHT22;16122;50.236;11.734;2022-09-27T12:35:48;16.30;67.60
29031;DHT22;16122;50.236;11.734;2022-09-27T12:38:22;16.40;67.70
29031;DHT22;16122;50.236;11.734;2022-09-27T12:40:51;16.40;67.50
29031;DHT22;16122;50.236;11.734;2022-09-27T12:43:28;16.40;67.40
29031;DHT22;16122;50.236;11.734;2022-09-27T12:46:38;16.40;67.40
29031;DHT22;16122;50.236;11.734;2022-09-27T12:52:00;16.40;67.50
29031;DHT22;16122;50.236;11.734;2022-09-27T13:13:40;16.40;67.70
29031;DHT22;16122;50.236;11.734;2022-09-27T13:16:09;16.40;67.90
29031;DHT22;16122;50.236;11.734;2022-09-27T13:18:58;16.40;68.10
29031;DHT22;16122;50.236;11.734;2022-09-27T13:21:53;16.40;68.00
29031;DHT22;16122;50.236;11.734;2022-09-27T13:24:43;16.40;68.10
29031;DHT22;16122;50.236;11.734;2022-09-27T13:27:36;16.40;68.10
29031;DHT22;16122;50.236;11.734;2022-09-27T13:32:34;16.40;68.00
29031;DHT22;16122;50.236;11.734;2022-09-27T13:35:24;16.40;68.30
29031;DHT22;16122;50.236;11.734;2022-09-27T13:38:03;16.40;68.30
29031;DHT22;16122;50.236;11.734;2022-09-27T13:40:46;16.50;68.40
29031;DHT22;16122;50.236;11.734;2022-09-27T13:43:38;16.50;68.60
29031;DHT22;16122;50.236;11.734;2022-09-27T13:46:20;16.50;69.20
29031;DHT22;16122;50.236;11.734;2022-09-27T13:49:02;16.50;69.20
29031;DHT22;16122;50.236;11.734;2022-09-27T13:52:01;16.50;69.50
29031;DHT22;16122;50.236;11.734;2022-09-27T13:54:37;16.50;70.00
29031;DHT22;16122;50.236;11.734;2022-09-27T13:57:48;16.50;70.10
29031;DHT22;16122;50.236;11.734;2022-09-27T14:00:32;16.50;70.60
29031;DHT22;16122;50.236;11.734;2022-09-27T14:03:34;16.50;71.10
29031;DHT22;16122;50.236;11.734;2022-09-27T14:06:34;16.60;70.40
29031;DHT22;16122;50.236;11.734;2022-09-27T14:09:12;16.50;70.90
29031;DHT22;16122;50.236;11.734;2022-09-27T14:11:42;16.50;71.30
29031;DHT22;16122;50.236;11.734;2022-09-27T14:14:16;16.50;71.70
29031;DHT22;16122;50.236;11.734;2022-09-27T14:16:48;16.50;71.50
29031;DHT22;16122;50.236;11.734;2022-09-27T14:19:22;16.50;72.20
29031;DHT22;16122;50.236;11.734;2022-09-27T14:22:11;16.50;72.10
29031;DHT22;16122;50.236;11.734;2022-09-27T14:24:53;16.50;72.20
29031;DHT22;16122;50.236;11.734;2022-09-27T14:27:38;16.50;72.30
29031;DHT22;16122;50.236;11.734;2022-09-27T14:30:23;16.50;72.20
29031;DHT22;16122;50.236;11.734;2022-09-27T14:32:56;16.40;71.90
29031;DHT22;16122;50.236;11.734;2022-09-27T14:35:47;16.50;72.10
29031;DHT22;16122;50.236;11.734;2022-09-27T14:38:32;16.50;72.00
29031;DHT22;16122;50.236;11.734;2022-09-27T14:41:04;16.50;72.00
29031;DHT22;16122;50.236;11.734;2022-09-27T14:43:33;16.50;72.20
29031;DHT22;16122;50.236;11.734;2022-09-27T14:46:04;16.50;72.10
29031;DHT22;16122;50.236;11.734;2022-09-27T14:48:32;16.50;71.80
29031;DHT22;16122;50.236;11.734;2022-09-27T14:51:00;16.50;71.80
29031;DHT22;16122;50.236;11.734;2022-09-27T14:53:51;16.50;72.20
29031;DHT22;16122;50.236;11.734;2022-09-27T14:56:28;16.50;72.20
29031;DHT22;16122;50.236;11.734;2022-09-27T14:59:15;16.50;72.40
29031;DHT22;16122;50.236;11.734;2022-09-27T15:01:49;16.50;71.90
29031;DHT22;16122;50.236;11.734;2022-09-27T15:04:18;16.50;71.90
29031;DHT22;16122;50.236;11.734;2022-09-27T15:06:45;16.50;72.30
29031;DHT22;16122;50.236;11.734;2022-09-27T15:09:13;16.50;72.60
29031;DHT22;16122;50.236;11.734;2022-09-27T15:11:40;16.50;72.50
29031;DHT22;16122;50.236;11.734;2022-09-27T15:14:10;16.50;72.80
29031;DHT22;16122;50.236;11.734;2022-09-27T15:16:37;16.50;72.60
29031;DHT22;16122;50.236;11.734;2022-09-27T15:21:38;16.50;72.70
29031;DHT22;16122;50.236;11.734;2022-09-27T15:24:04;16.50;73.10
29031;DHT22;16122;50.236;11.734;2022-09-27T15:26:35;16.50;73.10
29031;DHT22;16122;50.236;11.734;2022-09-27T15:29:02;16.50;73.20
29031;DHT22;16122;50.236;11.734;2022-09-27T15:31:33;16.50;73.10
29031;DHT22;16122;50.236;11.734;2022-09-27T15:34:00;16.50;72.90
29031;DHT22;16122;50.236;11.734;2022-09-27T15:39:32;16.50;72.80
29031;DHT22;16122;50.236;11.734;2022-09-27T15:42:06;16.50;72.30
29031;DHT22;16122;50.236;11.734;2022-09-27T15:44:48;16.50;72.50
29031;DHT22;16122;50.236;11.734;2022-09-27T15:52:50;16.50;72.10
29031;DHT22;16122;50.236;11.734;2022-09-27T15:55:21;16.50;72.10
29031;DHT22;16122;50.236;11.734;2022-09-27T15:58:04;16.50;71.90
29031;DHT22;16122;50.236;11.734;2022-09-27T16:00:33;16.50;71.60
29031;DHT22;16122;50.236;11.734;2022-09-27T16:03:00;16.50;71.30
29031;DHT22;16122;50.236;11.734;2022-09-27T16:05:27;16.50;71.40
29031;DHT22;16122;50.236;11.734;2022-09-27T16:07:54;16.50;71.70
29031;DHT22;16122;50.236;11.734;2022-09-27T16:10:31;16.50;71.40
29031;DHT22;16122;50.236;11.734;2022-09-27T16:13:00;16.50;71.70
29031;DHT22;16122;50.236;11.734;2022-09-27T16:15:25;16.50;71.60
29031;DHT22;16122;50.236;11.734;2022-09-27T16:17:51;16.50;71.30
29031;DHT22;16122;50.236;11.734;2022-09-27T16:20:21;16.50;71.20
29031;DHT22;16122;50.236;11.734;2022-09-27T16:22:50;16.50;71.70
29031;DHT22;16122;50.236;11.734;2022-09-27T16:25:17;16.50;71.70
29031;DHT22;16122;50.236;11.734;2022-09-27T16:27:43;16.50;71.80
29031;DHT22;16122;50.236;11.734;2022-09-27T16:30:10;16.50;72.00
29031;DHT22;16122;50.236;11.734;2022-09-27T16:32:55;16.50;72.00
29031;DHT22;16122;50.236;11.734;2022-09-27T16:35:22;16.50;72.10
29031;DHT22;16122;50.236;11.734;2022-09-27T16:37:48;16.50;72.00
29031;DHT22;16122;50.236;11.734;2022-09-27T16:40:15;16.50;72.30
29031;DHT22;16122;50.236;11.734;2022-09-27T16:42:46;16.50;72.00
29031;DHT22;16122;50.236;11.734;2022-09-27T16:45:13;16.50;72.10
29031;DHT22;16122;50.236;11.734;2022-09-27T16:47:41;16.50;71.90
29031;DHT22;16122;50.236;11.734;2022-09-27T16:50:09;16.50;71.80
29031;DHT22;16122;50.236;11.734;2022-09-27T16:52:55;16.80;72.00
29031;DHT22;16122;50.236;11.734;2022-09-27T16:55:21;16.50;71.80
29031;DHT22;16122;50.236;11.734;2022-09-27T16:57:48;16.50;72.10
29031;DHT22;16122;50.236;11.734;2022-09-27T17:00:14;16.50;71.80
29031;DHT22;16122;50.236;11.734;2022-09-27T17:02:40;16.40;71.70
29031;DHT22;16122;50.236;11.734;2022-09-27T17:05:08;16.40;71.60
29031;DHT22;16122;50.236;11.734;2022-09-27T17:07:35;16.40;71.50
29031;DHT22;16122;50.236;11.734;2022-09-27T17:10:01;16.40;71.30
29031;DHT22;16122;50.236;11.734;2022-09-27T17:12:27;16.40;71.30
29031;DHT22;16122;50.236;11.734;2022-09-27T17:14:52;16.60;71.30
29031;DHT22;16122;50.236;11.734;2022-09-27T17:17:18;16.40;71.30
29031;DHT22;16122;50.236;11.734;2022-09-27T17:19:44;16.20;71.10
29031;DHT22;16122;50.236;11.734;2022-09-27T17:22:10;16.40;71.00
29031;DHT22;16122;50.236;11.734;2022-09-27T17:24:36;16.40;71.10
29031;DHT22;16122;50.236;11.734;2022-09-27T17:27:02;16.40;71.00
29031;DHT22;16122;50.236;11.734;2022-09-27T17:29:28;16.40;71.10
29031;DHT22;16122;50.236;11.734;2022-09-27T17:31:54;16.40;70.90
29031;DHT22;16122;50.236;11.734;2022-09-27T17:34:20;16.40;70.80
29031;DHT22;16122;50.236;11.734;2022-09-27T17:36:46;16.40;70.60
29031;DHT22;16122;50.236;11.734;2022-09-27T17:39:18;16.40;70.60
29031;DHT22;16122;50.236;11.734;2022-09-27T17:41:47;16.40;72.10
29031;DHT22;16122;50.236;11.734;2022-09-27T17:44:14;16.40;73.20
29031;DHT22;16122;50.236;11.734;2022-09-27T17:46:41;16.40;73.90
29031;DHT22;16122;50.236;11.734;2022-09-27T17:49:08;16.40;74.30
29031;DHT22;16122;50.236;11.734;2022-09-27T17:51:53;16.40;74.50
29031;DHT22;16122;50.236;11.734;2022-09-27T17:54:21;16.40;74.80
29031;DHT22;16122;50.236;11.734;2022-09-27T17:56:48;16.50;74.90
29031;DHT22;16122;50.236;11.734;2022-09-27T17:59:15;16.40;75.00
29031;DHT22;16122;50.236;11.734;2022-09-27T18:01:42;16.40;75.10
29031;DHT22;16122;50.236;11.734;2022-09-27T18:04:11;16.40;74.90
29031;DHT22;16122;50.236;11.734;2022-09-27T18:06:42;16.40;75.20
29031;DHT22;16122;50.236;11.734;2022-09-27T18:09:10;16.40;75.50
29031;DHT22;16122;50.236;11.734;2022-09-27T18:11:38;16.40;75.20
29031;DHT22;16122;50.236;11.734;2022-09-27T18:14:05;16.20;75.60
29031;DHT22;16122;50.236;11.734;2022-09-27T18:16:34;16.40;75.30
29031;DHT22;16122;50.236;11.734;2022-09-27T18:19:03;16.40;75.50
29031;DHT22;16122;50.236;11.734;2022-09-27T18:21:29;16.40;75.60
29031;DHT22;16122;50.236;11.734;2022-09-27T18:23:58;16.40;75.50
29031;DHT22;16122;50.236;11.734;2022-09-27T18:26:26;16.40;75.50
29031;DHT22;16122;50.236;11.734;2022-09-27T18:28:54;16.40;75.40
29031;DHT22;16122;50.236;11.734;2022-09-27T18:31:21;16.40;75.50
29031;DHT22;16122;50.236;11.734;2022-09-27T18:33:48;16.30;75.50
29031;DHT22;16122;50.236;11.734;2022-09-27T18:36:16;16.40;75.70
29031;DHT22;16122;50.236;11.734;2022-09-27T18:38:44;16.20;75.20